TFM - Tactical Decision Aid
ID: Runway Winds: CIG/VIS Threshold:

KFLL - Ft Lauderdale-Hollyw, FL, US

Updated at: 0124 UTC 12 May 2021
Latest TAF at: 2320 UTC 11 May 2021

TAF Board

Time0053Z 12/02Z 12/03Z 12/04Z 12/05Z 12/06Z 12/07Z 12/08Z 12/09Z 12/10Z 12/11Z 12/12Z 12/13Z 12/14Z>>
Type OBS PRVL PRVL PRVL PRVL PRVL PRVL PRVL PRVL PRVL PRVL PRVL PRVL PRVL
VIS 10 >6 >6 >6 >6 >6 >6 >6 >6 >6 >6 >6 >6 >6
CIG -- -- -- -- -- -- -- -- -- -- -- -- -- --
Cover SCT SCT SCT SCT SCT SCT SCT SCT SCT SCT SCT SCT SCT SCT
FltCat VFR VFR VFR VFR VFR VFR VFR VFR VFR VFR VFR VFR VFR VFR
WX -- -- -- -- -- -- -- -- -- -- -- -- -- --
WDir 120 VRB VRB VRB VRB VRB VRB VRB VRB VRB VRB VRB VRB 140
WSpd 10 3 3 3 3 3 3 3 3 3 3 3 3 10
WGst -- -- -- -- -- -- -- -- -- -- -- -- -- --

TDA Impact Legend

  None Marginal Slight Moderate High
Visibility (sm) >5 3≤X≤5 2≤X<3 0.75≤X<2 <0.75
Ceiling (100 ft) >30 10≤X≤30 6≤X<10 3≤X<6 <3
Wind Speed (kt) <15 15≤X<25 25≤X<30 ≥30
Wind Gust (kt) <15 15≤X<25 25≤X<35 ≥35
Weather No Wx Reported VCTS -TS,-FZRA TS,FZRA +TS,+FZRA
TAF
KFLL 112320Z 1200/1306 13010KT P6SM FEW035 FEW060 SCT150
  FM120200 VRB03KT P6SM SCT250
  FM121400 14010KT P6SM FEW030 SCT100
  FM130200 15005KT P6SM FEW025


METAR
KFLL 120053Z 12010KT 10SM FEW030 FEW160 SCT250 28/23 A3004 RMK AO2 SLP173 T02780233
KFLL 112353Z 13008KT 10SM FEW033 FEW060 SCT160 BKN250 28/23 A3002 RMK AO2 SLP165 CB DSNT NW T02830233 10311 20283 53004
KFLL 112253Z 13011KT 10SM FEW035 FEW060 SCT160 BKN250 29/23 A3001 RMK AO2 SLP161 CB DSNT NW T02890228

Radar Display
Forecast Discussion